createdAt,value
2018-06-30T00:03:01.464Z,15.60
2018-06-30T00:07:53.183Z,15.40
2018-06-30T00:12:44.059Z,15.40
2018-06-30T00:17:34.954Z,15.40
2018-06-30T00:22:25.835Z,15.30
2018-06-30T00:27:16.882Z,15.20
2018-06-30T00:32:08.526Z,15.00
2018-06-30T00:36:59.419Z,15.00
2018-06-30T00:41:50.298Z,15.00
2018-06-30T00:46:41.183Z,14.90
2018-06-30T00:51:32.119Z,14.90
2018-06-30T00:56:23.019Z,14.80
2018-06-30T01:01:13.920Z,14.70
2018-06-30T01:06:05.568Z,14.60
2018-06-30T01:10:56.477Z,14.50
2018-06-30T01:15:48.122Z,14.50
2018-06-30T01:20:39.755Z,14.30
2018-06-30T01:25:31.464Z,14.30
2018-06-30T01:30:22.388Z,14.30
2018-06-30T01:35:13.270Z,14.20
2018-06-30T01:40:04.913Z,14.10
2018-06-30T01:44:55.824Z,14.00
2018-06-30T01:49:46.737Z,14.00
2018-06-30T01:54:37.645Z,14.00
2018-06-30T01:59:28.534Z,13.90
2018-06-30T02:04:20.158Z,13.80
2018-06-30T02:09:11.800Z,13.70
2018-06-30T02:14:03.455Z,13.70
2018-06-30T02:18:54.350Z,13.70
2018-06-30T02:23:45.992Z,13.60
2018-06-30T02:28:37.633Z,13.60
2018-06-30T02:33:35.400Z,13.50
2018-06-30T02:38:27.036Z,13.50
2018-06-30T02:43:25.694Z,13.40
2018-06-30T02:48:16.591Z,13.40
2018-06-30T02:53:07.483Z,13.40
2018-06-30T02:57:59.112Z,13.30
2018-06-30T03:02:49.999Z,13.30
2018-06-30T03:07:40.952Z,13.30
2018-06-30T03:12:32.584Z,13.20
2018-06-30T03:17:24.228Z,13.20
2018-06-30T03:22:15.137Z,13.10
2018-06-30T03:27:06.773Z,13.10
2018-06-30T03:31:58.413Z,13.00
2018-06-30T03:36:50.060Z,13.00
2018-06-30T03:41:40.957Z,13.00
2018-06-30T03:46:32.661Z,13.00
2018-06-30T03:51:23.572Z,13.00
2018-06-30T03:56:14.471Z,13.00
2018-06-30T04:01:05.377Z,12.90
2018-06-30T04:05:56.255Z,12.90
2018-06-30T04:10:47.173Z,12.90
2018-06-30T04:15:38.084Z,12.90
2018-06-30T04:20:28.993Z,12.90
2018-06-30T04:25:19.893Z,12.90
2018-06-30T04:30:10.797Z,12.90
2018-06-30T04:35:01.710Z,12.90
2018-06-30T04:39:52.628Z,12.90
2018-06-30T04:44:43.529Z,13.00
2018-06-30T04:49:34.410Z,13.00
2018-06-30T04:54:25.341Z,13.10
2018-06-30T04:59:16.249Z,13.20
2018-06-30T05:04:07.159Z,13.30
2018-06-30T05:08:58.046Z,13.40
2018-06-30T05:13:48.953Z,13.50
2018-06-30T05:18:39.857Z,13.60
2018-06-30T05:23:30.763Z,13.60
2018-06-30T05:28:22.398Z,13.80
2018-06-30T05:33:14.035Z,13.90
2018-06-30T05:38:05.692Z,14.00
2018-06-30T05:42:56.600Z,14.00
2018-06-30T05:47:47.521Z,14.10
2018-06-30T05:52:38.422Z,14.30
2018-06-30T05:57:30.047Z,14.50
2018-06-30T06:02:20.942Z,14.50
2018-06-30T06:07:11.840Z,14.60
2018-06-30T06:12:02.741Z,14.70
2018-06-30T06:16:53.723Z,14.80
2018-06-30T06:21:45.356Z,14.90
2018-06-30T06:26:36.249Z,14.90
2018-06-30T06:31:27.152Z,15.00
2018-06-30T06:36:18.030Z,15.10
2018-06-30T06:41:08.929Z,15.20
2018-06-30T06:46:00.579Z,15.40
2018-06-30T06:50:52.225Z,15.50
2018-06-30T06:55:43.106Z,15.50
2018-06-30T07:00:34.066Z,15.70
2018-06-30T07:05:24.904Z,15.80
2018-06-30T07:10:15.803Z,15.90
2018-06-30T07:15:06.717Z,16.10
2018-06-30T07:19:57.606Z,16.30
2018-06-30T07:24:48.494Z,16.50
2018-06-30T07:29:39.405Z,16.80
2018-06-30T07:34:30.313Z,17.10
2018-06-30T07:39:21.213Z,17.40
2018-06-30T07:44:12.137Z,17.70
2018-06-30T07:49:03.042Z,18.00
2018-06-30T07:53:53.949Z,18.20
2018-06-30T07:58:44.868Z,18.40
2018-06-30T08:03:36.518Z,18.70
2018-06-30T08:08:27.407Z,18.70
2018-06-30T08:13:18.341Z,18.90
2018-06-30T08:18:10.001Z,19.10
2018-06-30T08:23:00.904Z,19.10
2018-06-30T08:27:51.858Z,19.20
2018-06-30T08:32:42.752Z,19.30
2018-06-30T08:37:33.661Z,19.40
2018-06-30T08:42:24.567Z,19.50
2018-06-30T08:47:16.231Z,19.50
2018-06-30T08:52:07.160Z,19.50
2018-06-30T08:56:58.071Z,19.60
2018-06-30T09:01:48.980Z,19.50
2018-06-30T09:06:39.937Z,19.60
2018-06-30T09:11:30.859Z,19.60
2018-06-30T09:16:21.761Z,19.70
2018-06-30T09:21:12.661Z,19.80
2018-06-30T09:26:03.609Z,19.90
2018-06-30T09:30:54.487Z,20.00
2018-06-30T09:35:45.390Z,20.10
2018-06-30T09:40:37.022Z,20.20
2018-06-30T09:45:28.688Z,20.30
2018-06-30T09:50:19.585Z,20.30
2018-06-30T09:55:10.524Z,20.40
2018-06-30T10:00:01.421Z,20.50
2018-06-30T10:04:52.320Z,20.60
2018-06-30T10:09:43.944Z,21.00
2018-06-30T10:14:34.848Z,20.90
2018-06-30T10:24:23.389Z,21.20
2018-06-30T10:29:14.284Z,21.40
2018-06-30T10:34:05.915Z,21.70
2018-06-30T10:38:56.895Z,21.70
2018-06-30T10:43:47.835Z,21.90
2018-06-30T10:48:38.727Z,22.10
2018-06-30T10:53:29.638Z,22.30
2018-06-30T10:58:20.542Z,22.30
2018-06-30T11:03:11.443Z,22.50
2018-06-30T11:08:03.082Z,22.70
2018-06-30T11:12:53.975Z,22.70
2018-06-30T11:17:44.879Z,22.80
2018-06-30T11:22:35.910Z,22.90
2018-06-30T11:27:26.790Z,23.20
2018-06-30T11:32:17.690Z,23.30
2018-06-30T11:37:08.589Z,23.60
2018-06-30T11:42:00.222Z,24.60
2018-06-30T11:46:51.848Z,25.00
2018-06-30T11:51:43.486Z,25.50
2018-06-30T11:56:35.114Z,25.80
2018-06-30T12:01:26.007Z,25.70
2018-06-30T12:06:16.901Z,26.10
2018-06-30T12:11:07.796Z,26.40
2018-06-30T12:15:58.691Z,26.60
2018-06-30T12:20:50.364Z,27.00
2018-06-30T12:25:41.254Z,26.90
2018-06-30T12:30:32.895Z,27.40
2018-06-30T12:35:24.557Z,27.50
2018-06-30T12:40:15.455Z,27.50
2018-06-30T12:45:06.414Z,27.50
2018-06-30T12:49:57.289Z,27.40
2018-06-30T12:54:48.197Z,27.20
2018-06-30T12:59:39.840Z,26.80
2018-06-30T13:04:31.505Z,26.60
2018-06-30T13:09:22.394Z,26.60
2018-06-30T13:14:14.053Z,26.50
2018-06-30T13:19:04.969Z,26.50
2018-06-30T13:23:55.873Z,26.50
2018-06-30T13:28:46.834Z,26.50
2018-06-30T13:33:37.709Z,26.50
2018-06-30T13:38:28.613Z,26.60
2018-06-30T13:43:20.290Z,26.80
2018-06-30T13:48:11.187Z,26.80
2018-06-30T13:53:02.089Z,26.80
2018-06-30T13:57:53.743Z,26.70
2018-06-30T14:02:44.650Z,26.70
2018-06-30T14:07:36.359Z,26.40
2018-06-30T14:12:27.266Z,26.40
2018-06-30T14:17:18.172Z,26.30
2018-06-30T14:22:09.058Z,26.30
2018-06-30T14:26:59.966Z,26.30
2018-06-30T14:31:50.870Z,26.50
2018-06-30T14:36:42.528Z,26.40
2018-06-30T14:41:33.432Z,26.30
2018-06-30T14:46:25.082Z,26.10
2018-06-30T14:51:15.993Z,26.10
2018-06-30T14:56:06.897Z,26.00
2018-06-30T15:00:58.734Z,26.10
2018-06-30T15:05:50.376Z,26.10
2018-06-30T15:10:42.021Z,26.30
2018-06-30T15:15:32.949Z,26.20
2018-06-30T15:20:23.898Z,26.40
2018-06-30T15:25:14.775Z,26.30
2018-06-30T15:30:05.672Z,26.20
2018-06-30T15:34:57.318Z,25.80
2018-06-30T15:39:49.002Z,25.50
2018-06-30T15:44:39.917Z,25.50
2018-06-30T15:49:30.812Z,25.30
2018-06-30T15:54:21.717Z,25.10
2018-06-30T15:59:12.644Z,24.90
2018-06-30T16:04:03.538Z,24.80
2018-06-30T16:08:55.249Z,24.50
2018-06-30T16:13:46.165Z,24.40
2018-06-30T16:18:37.073Z,24.40
2018-06-30T16:23:28.717Z,24.10
2018-06-30T16:28:19.656Z,24.10
2018-06-30T16:33:10.555Z,23.90
2018-06-30T16:38:02.178Z,23.60
2018-06-30T16:42:53.110Z,23.60
2018-06-30T16:47:43.996Z,23.40
2018-06-30T16:52:34.876Z,23.30
2018-06-30T16:57:26.563Z,22.90
2018-06-30T17:02:17.439Z,22.90
2018-06-30T17:07:09.122Z,22.60
2018-06-30T17:12:00.027Z,22.60
2018-06-30T17:16:50.926Z,22.40
2018-06-30T17:21:41.813Z,22.30
2018-06-30T17:26:32.704Z,22.10
2018-06-30T17:31:23.653Z,22.00
2018-06-30T17:36:15.294Z,21.70
2018-06-30T17:41:06.949Z,21.50
2018-06-30T17:45:57.848Z,21.50
2018-06-30T17:50:49.509Z,21.20
2018-06-30T17:55:40.436Z,21.20
2018-06-30T18:00:31.338Z,21.10
2018-06-30T18:05:22.232Z,21.00
2018-06-30T18:10:13.232Z,20.90
2018-06-30T18:15:04.790Z,20.70
2018-06-30T18:19:56.446Z,20.60
2018-06-30T18:24:47.344Z,20.60
2018-06-30T18:29:38.986Z,20.40
2018-06-30T18:34:30.622Z,20.30
2018-06-30T18:39:22.274Z,20.20
2018-06-30T18:44:13.220Z,20.20
2018-06-30T18:49:04.833Z,20.00
2018-06-30T18:53:55.757Z,20.00
2018-06-30T18:58:46.654Z,19.80
2018-06-30T19:03:38.297Z,19.60
2018-06-30T19:08:29.239Z,19.60
2018-06-30T19:13:20.137Z,19.50
2018-06-30T19:18:11.049Z,19.40
2018-06-30T19:23:01.953Z,19.30
2018-06-30T19:27:53.601Z,19.10
2018-06-30T19:32:44.529Z,19.10
2018-06-30T19:37:35.429Z,19.00
2018-06-30T19:42:27.077Z,18.70
2018-06-30T19:47:17.974Z,18.70
2018-06-30T19:52:09.632Z,18.50
2018-06-30T19:57:00.534Z,18.50
2018-06-30T20:01:52.178Z,18.30
2018-06-30T20:06:43.868Z,18.20
2018-06-30T20:11:34.758Z,18.10
2018-06-30T20:16:25.634Z,18.00
2018-06-30T20:21:16.531Z,17.90
2018-06-30T20:26:07.425Z,17.80
2018-06-30T20:30:58.318Z,17.70
2018-06-30T20:35:49.209Z,17.60
2018-06-30T20:40:40.858Z,17.40
2018-06-30T20:45:32.483Z,17.30
2018-06-30T20:50:24.120Z,17.20
2018-06-30T20:55:15.747Z,17.10
2018-06-30T21:00:06.628Z,17.10
2018-06-30T21:04:57.521Z,17.00
2018-06-30T21:09:48.403Z,16.80
2018-06-30T21:14:40.054Z,16.60
2018-06-30T21:19:31.009Z,16.60
2018-06-30T21:24:21.891Z,16.50
2018-06-30T21:29:12.789Z,16.50
2018-06-30T21:34:03.675Z,16.30
2018-06-30T21:38:54.576Z,16.30
2018-06-30T21:43:45.477Z,16.10
2018-06-30T21:48:36.370Z,16.10
2018-06-30T21:53:28.018Z,15.90
2018-06-30T21:58:18.929Z,15.80
2018-06-30T22:03:10.610Z,15.60
2018-06-30T22:08:01.474Z,15.60
2018-06-30T22:12:53.121Z,15.40
2018-06-30T22:17:44.746Z,15.30
2018-06-30T22:22:36.362Z,15.20
2018-06-30T22:27:27.257Z,15.20
2018-06-30T22:32:18.158Z,15.10
2018-06-30T22:37:09.034Z,15.00
2018-06-30T22:42:00.665Z,14.70
2018-06-30T22:46:52.286Z,14.60
2018-06-30T22:51:43.168Z,14.60
2018-06-30T22:56:34.072Z,14.50
2018-06-30T23:01:24.974Z,14.40
2018-06-30T23:06:15.861Z,14.30
2018-06-30T23:11:06.748Z,14.20
2018-06-30T23:15:57.656Z,14.10
2018-06-30T23:20:48.561Z,14.00
2018-06-30T23:25:39.466Z,13.90
2018-06-30T23:30:30.360Z,13.80
2018-06-30T23:35:21.256Z,13.80
2018-06-30T23:40:12.138Z,13.70
2018-06-30T23:45:03.038Z,13.70
2018-06-30T23:49:53.937Z,13.60
2018-06-30T23:54:45.570Z,13.60
2018-06-30T23:59:36.455Z,13.50
